Ahlsell — OYZH — position and weather

sailwx.info

Track history (hours):
 
Tides and Currents Weather Stations Pressure Air Temp Water Temp Dewpoint Dewpoint Depression Visibility Wind Speed Wind Dir Waves Ship Positions

Ahlsell

Last reported at 2015-Jan-27 22:33 UTC. Time now 2015-Jan-27 23:01 UTC.
Position N 55°04' E 014°41'.

Length 40 m; draft 4 m.

Type: Dredging. MMSI: 219000852.

Date/timePositionNaut miles runAvg speedWind from/ knotsBaromVisibWave heightAir tempDewpointWater temp
2015-Jan-27 22:33N 55°04' E 014°41'0 0.0
2015-Jan-27 21:33N 55°04' E 014°41'0 0.0
2015-Jan-27 20:33N 55°04' E 014°41'2 1.9
2015-Jan-27 19:33N 55°06' E 014°41'0 0.0
2015-Jan-27 18:34N 55°06' E 014°41'2 1.9
2015-Jan-27 17:33N 55°04' E 014°41'0 0.0
2015-Jan-27 16:33N 55°04' E 014°41'0 0.0
2015-Jan-27 15:33N 55°04' E 014°41'2 1.9
2015-Jan-27 14:33N 55°06' E 014°41'0 0.0
2015-Jan-27 13:33N 55°06' E 014°41'2 1.9
2015-Jan-27 12:34N 55°04' E 014°41'0 0.1
2015-Jan-27 11:33N 55°04' E 014°41'0 0.0
2015-Jan-27 10:33N 55°04' E 014°41'2 2.0
2015-Jan-27 09:33N 55°06' E 014°41'0 0.0
2015-Jan-27 08:33N 55°06' E 014°41'2 1.9
2015-Jan-27 07:33N 55°04' E 014°41'0 0.0
2015-Jan-27 06:33N 55°04' E 014°41'2 1.6
2015-Jan-27 05:33N 55°06' E 014°41'0 0.4
2015-Jan-27 04:33N 55°06' E 014°41'0 0.0
2015-Jan-27 03:33N 55°06' E 014°41'0 0.0
2015-Jan-27 02:33N 55°06' E 014°41'0 0.0
2015-Jan-27 01:33N 55°06' E 014°41'0 0.0
2015-Jan-27 00:33N 55°06' E 014°41'0 0.0
2015-Jan-26 23:33N 55°06' E 014°41'0 0.0
2015-Jan-26 22:33N 55°06' E 014°41'0 0.0
2015-Jan-26 21:33N 55°06' E 014°41'0 0.0
2015-Jan-26 20:33N 55°06' E 014°41'0 0.0
2015-Jan-26 19:33N 55°06' E 014°41'0 0.0
2015-Jan-26 18:33N 55°06' E 014°41'0 0.0
2015-Jan-26 17:33N 55°06' E 014°41'0 0.0
2015-Jan-26 16:33N 55°06' E 014°41'0 0.0
2015-Jan-26 15:33N 55°06' E 014°41'0 0.0
2015-Jan-26 14:33N 55°06' E 014°41'0 0.0
2015-Jan-26 13:33N 55°06' E 014°41'1 0.9
2015-Jan-26 12:33N 55°05' E 014°40'3 3.3
2015-Jan-26 11:33N 55°02' E 014°39'0 0.0
2015-Jan-26 10:33N 55°02' E 014°39'0 0.0
2015-Jan-26 09:33N 55°02' E 014°39'4 4.0
2015-Jan-26 08:34N 55°06' E 014°41'0 0.2
2015-Jan-26 07:33N 55°06' E 014°41'3 3.1
2015-Jan-26 06:33N 55°03' E 014°41'0 0.1
2015-Jan-26 05:33N 55°03' E 014°41'0 0.0
2015-Jan-26 04:33N 55°03' E 014°41'0 0.0
2015-Jan-26 03:33N 55°03' E 014°41'3 3.2
2015-Jan-26 02:33N 55°06' E 014°41'0 0.0
2015-Jan-26 01:33N 55°06' E 014°41'4 3.7
2015-Jan-26 00:33N 55°02' E 014°41'0 0.2
2015-Jan-25 23:33N 55°02' E 014°41'0 0.0
2015-Jan-25 22:33N 55°02' E 014°41'0 0.0
2015-Jan-25 21:33N 55°02' E 014°41'3 3.1
2015-Jan-25 20:33N 55°05' E 014°41'1 0.8
2015-Jan-25 19:33N 55°06' E 014°41'3 2.8
2015-Jan-25 18:33N 55°03' E 014°41'1 1.4
2015-Jan-25 17:33N 55°02' E 014°41'0 0.0
2015-Jan-25 16:33N 55°02' E 014°41'0 0.0
2015-Jan-25 15:34N 55°02' E 014°41'0 0.0
2015-Jan-25 14:34N 55°02' E 014°41'4 3.8
2015-Jan-25 13:33N 55°06' E 014°41'0 0.4
2015-Jan-25 12:33N 55°06' E 014°41'2 2.5
2015-Jan-25 11:33N 55°04' E 014°40'1 1.5
2015-Jan-25 10:33N 55°02' E 014°41'0 0.0
2015-Jan-25 09:33N 55°02' E 014°41'0 0.0
2015-Jan-25 08:33N 55°02' E 014°41'2 1.8
2015-Jan-25 07:33N 55°04' E 014°41'2 2.1
2015-Jan-25 06:33N 55°06' E 014°41'1 1.1
2015-Jan-25 05:33N 55°05' E 014°40'3 3.0
2015-Jan-25 04:33N 55°02' E 014°41'0 0.0
2015-Jan-25 03:33N 55°02' E 014°41'0 0.0
2015-Jan-25 02:33N 55°02' E 014°41'0 0.0
2015-Jan-25 01:34N 55°02' E 014°41'4 3.6
2015-Jan-25 00:33N 55°06' E 014°41'0 0.3
2015-Jan-24 23:33N 55°06' E 014°41'0 0.0
2015-Jan-24 22:33N 55°06' E 014°41'2 1.8
2015-Jan-24 21:33N 55°04' E 014°41'6 6.4
2015-Jan-24 20:33N 54°59' E 014°48'2 2.5
2015-Jan-24 19:33N 54°57' E 014°50'3 3.4
2015-Jan-24 18:33N 54°59' E 014°46'6 5.6
2015-Jan-24 17:33N 55°04' E 014°41'2 1.9
2015-Jan-24 16:33N 55°06' E 014°41'0 0.0
2015-Jan-24 15:33N 55°06' E 014°41'0 0.0
2015-Jan-24 14:33N 55°06' E 014°41'0 0.0
2015-Jan-24 13:33N 55°06' E 014°41'0 0.0
2015-Jan-24 12:33N 55°06' E 014°41'0 0.0
2015-Jan-24 11:33N 55°06' E 014°41'0 0.0
2015-Jan-24 10:33N 55°06' E 014°41'0 0.0
2015-Jan-24 09:33N 55°06' E 014°41'0 0.0
2015-Jan-24 08:33N 55°06' E 014°41'4 4.3
2015-Jan-24 07:33N 55°02' E 014°39'0 0.0
2015-Jan-24 06:34N 55°02' E 014°39'0 0.0
2015-Jan-24 05:33N 55°02' E 014°39'0 0.0
2015-Jan-24 04:33N 55°02' E 014°39'0 0.0
2015-Jan-24 03:34N 55°02' E 014°39'2 2.2
2015-Jan-24 02:33N 55°04' E 014°40'2 2.0
2015-Jan-24 01:33N 55°06' E 014°41'1 0.9
2015-Jan-24 00:33N 55°05' E 014°40'3 3.2
2015-Jan-23 23:33N 55°02' E 014°41'0 0.0
2015-Jan-23 22:33N 55°02' E 014°41'0 0.0
2015-Jan-23 21:33N 55°02' E 014°41'1 0.5
2015-Jan-23 20:33N 55°03' E 014°41'3 3.4
2015-Jan-23 19:33N 55°06' E 014°41'0 0.0
2015-Jan-23 18:33N 55°06' E 014°41'4 3.7
2015-Jan-23 17:33N 55°02' E 014°39'1 0.6
2015-Jan-23 16:33N 55°02' E 014°39'0 0.0
2015-Jan-23 15:33N 55°02' E 014°39'0 0.0
2015-Jan-23 14:33N 55°02' E 014°39'1 1.1
2015-Jan-23 13:33N 55°03' E 014°40'3 3.1
2015-Jan-23 12:33N 55°06' E 014°41'0 0.0
2015-Jan-23 11:33N 55°06' E 014°41'0 0.0
2015-Jan-23 10:33N 55°06' E 014°41'0 0.0
2015-Jan-23 09:33N 55°06' E 014°41'0 0.0
2015-Jan-23 08:33N 55°06' E 014°41'4 4.1
2015-Jan-23 07:33N 55°02' E 014°39'0 0.0
2015-Jan-23 06:33N 55°02' E 014°39'0 0.0
2015-Jan-23 05:34N 55°02' E 014°39'3 3.2
2015-Jan-23 04:33N 55°05' E 014°41'1 0.9
2015-Jan-23 03:33N 55°06' E 014°41'1 1.0
2015-Jan-23 02:33N 55°05' E 014°40'3 3.0
2015-Jan-23 01:33N 55°02' E 014°41'0 0.0
2015-Jan-23 00:33N 55°02' E 014°41'0 0.0
2015-Jan-22 23:34N 55°02' E 014°41'0 0.0
2015-Jan-22 22:33N 55°02' E 014°41'4 3.9
2015-Jan-22 21:33N 55°06' E 014°41'0 0.0
2015-Jan-22 20:33N 55°06' E 014°41'4 3.9
2015-Jan-22 19:34N 55°02' E 014°41'0 0.0
2015-Jan-22 18:33N 55°02' E 014°41'0 0.0
2015-Jan-22 17:33N 55°02' E 014°41'4 3.7
2015-Jan-22 16:34N 55°06' E 014°41'0 0.2
2015-Jan-22 15:33N 55°06' E 014°41'4 4.2
2015-Jan-22 14:33N 55°02' E 014°39'0 0.1
2015-Jan-22 13:33N 55°02' E 014°39'0 0.1
2015-Jan-22 12:33N 55°02' E 014°39'0 0.1
2015-Jan-22 11:33N 55°02' E 014°39'0 0.1
2015-Jan-22 10:33N 55°02' E 014°39'0 0.1
2015-Jan-22 09:33N 55°02' E 014°39'2 1.6
2015-Jan-22 08:33N 55°03' E 014°40'3 2.8
2015-Jan-22 07:33N 55°06' E 014°41'0 0.0
2015-Jan-22 06:33N 55°06' E 014°41'3 2.9
2015-Jan-22 05:33N 55°03' E 014°39'1 1.2
2015-Jan-22 04:33N 55°02' E 014°39'0 0.4
2015-Jan-22 03:33N 55°02' E 014°39'4 3.6
2015-Jan-22 02:33N 55°06' E 014°41'0 0.0
2015-Jan-22 01:34N 55°06' E 014°41'4 4.1
2015-Jan-22 00:33N 55°02' E 014°39'0 0.0
2015-Jan-21 23:34N 55°02' E 014°39'3 4.5
2015-Jan-21 22:50N 55°05' E 014°41'0 7.0
2015-Jan-21 22:46N 55°06' E 014°41'0 1.8
2015-Jan-21 22:33N 55°06' E 014°41'0 0.0
2015-Jan-21 21:33N 55°06' E 014°41'4 3.8
2015-Jan-21 20:33N 55°02' E 014°39'0 0.3
2015-Jan-21 19:33N 55°02' E 014°39'2 1.6
2015-Jan-21 18:33N 55°04' E 014°40'2 2.5
2015-Jan-21 17:33N 55°06' E 014°41'1 0.8
2015-Jan-21 16:33N 55°05' E 014°40'3 3.4
2015-Jan-21 15:33N 55°02' E 014°39'0 0.5
2015-Jan-21 14:33N 55°02' E 014°40'4 3.6
2015-Jan-21 13:33N 55°06' E 014°41'0 0.0
2015-Jan-21 12:34N 55°06' E 014°41'4 4.2
2015-Jan-21 11:33N 55°02' E 014°39'0 0.0
2015-Jan-21 10:33N 55°02' E 014°39'0 0.0
2015-Jan-21 09:33N 55°02' E 014°39'0 0.1
2015-Jan-21 08:34N 55°02' E 014°39'4 4.2
2015-Jan-21 07:33N 55°06' E 014°41'0 0.0
2015-Jan-21 06:33N 55°06' E 014°41'3 3.4
2015-Jan-21 05:33N 55°03' E 014°40'1 0.7
2015-Jan-21 04:33N 55°02' E 014°39'4 4.1
2015-Jan-21 03:33N 55°06' E 014°41'0 0.0
2015-Jan-21 02:33N 55°06' E 014°41'3 2.9
2015-Jan-21 01:33N 55°03' E 014°40'1 1.0
2015-Jan-21 00:33N 55°02' E 014°41'0 0.0
2015-Jan-20 23:33N 55°02' E 014°41'0 0.3
2015-Jan-20 22:33N 55°02' E 014°41'4 3.6
2015-Jan-20 21:33N 55°06' E 014°41'0 0.0
2015-Jan-20 20:33N 55°06' E 014°41'4 3.9
2015-Jan-20 19:33N 55°02' E 014°41'0 0.0
2015-Jan-20 18:33N 55°02' E 014°41'0 0.0
2015-Jan-20 17:33N 55°02' E 014°41'0 0.0
2015-Jan-20 16:33N 55°02' E 014°41'0 0.0
2015-Jan-20 15:33N 55°02' E 014°41'4 3.9
2015-Jan-20 14:33N 55°06' E 014°41'0 0.0
2015-Jan-20 13:33N 55°06' E 014°41'4 3.8
2015-Jan-20 12:33N 55°02' E 014°40'0 0.2
2015-Jan-20 11:33N 55°02' E 014°41'0 0.0
2015-Jan-20 10:33N 55°02' E 014°41'0 0.0
2015-Jan-20 09:33N 55°02' E 014°41'4 3.9
2015-Jan-20 08:33N 55°06' E 014°41'0 0.0
2015-Jan-20 07:33N 55°06' E 014°41'0 0.0
2015-Jan-20 06:33N 55°06' E 014°41'4 3.9
2015-Jan-20 05:33N 55°02' E 014°41'0 0.0
2015-Jan-20 04:34N 55°02' E 014°41'0 0.0
2015-Jan-20 03:33N 55°02' E 014°41'1 1.2
2015-Jan-20 02:33N 55°03' E 014°41'3 2.7
2015-Jan-20 01:33N 55°06' E 014°41'0 0.0
2015-Jan-20 00:34N 55°06' E 014°41'4 3.8
2015-Jan-19 23:34N 55°02' E 014°41'0 0.1
2015-Jan-19 22:33N 55°02' E 014°41'0 0.0
2015-Jan-19 21:33N 55°02' E 014°41'0 0.0
2015-Jan-19 20:33N 55°02' E 014°41'4 3.7
2015-Jan-19 19:33N 55°06' E 014°41'0 0.3
2015-Jan-19 18:33N 55°06' E 014°41'1 1.2
2015-Jan-19 17:33N 55°05' E 014°41'3 2.8
2015-Jan-19 16:33N 55°02' E 014°41'0 0.0
2015-Jan-19 15:33N 55°02' E 014°41'0 0.0
2015-Jan-19 14:33N 55°02' E 014°41'1 1.1
2015-Jan-19 13:33N 55°03' E 014°41'3 2.8
2015-Jan-19 12:33N 55°06' E 014°41'0 0.0
2015-Jan-19 11:33N 55°06' E 014°41'3 3.2
2015-Jan-19 10:33N 55°03' E 014°41'1 0.6
2015-Jan-19 09:33N 55°02' E 014°41'0 0.0
2015-Jan-19 08:33N 55°02' E 014°41'0 0.0
2015-Jan-19 07:33N 55°02' E 014°41'0 0.0
2015-Jan-19 06:34N 55°02' E 014°41'4 3.8
2015-Jan-19 05:33N 55°06' E 014°41'0 0.1
2015-Jan-19 04:33N 55°06' E 014°41'0 0.0
2015-Jan-19 03:33N 55°06' E 014°41'0 0.0
2015-Jan-19 02:33N 55°06' E 014°41'4 3.9
2015-Jan-19 01:33N 55°02' E 014°41'0 0.0
2015-Jan-19 00:33N 55°02' E 014°41'0 0.0
2015-Jan-18 23:33N 55°02' E 014°41'4 3.9
2015-Jan-18 22:33N 55°06' E 014°41'0 0.0
2015-Jan-18 21:33N 55°06' E 014°41'3 3.2
2015-Jan-18 20:33N 55°03' E 014°41'1 0.7
2015-Jan-18 19:33N 55°02' E 014°41'0 0.0
2015-Jan-18 18:33N 55°02' E 014°41'0 0.1
2015-Jan-18 17:33N 55°02' E 014°41'3 3.0
2015-Jan-18 16:33N 55°05' E 014°41'1 0.9
2015-Jan-18 15:33N 55°06' E 014°41'0 0.4
2015-Jan-18 14:33N 55°06' E 014°41'4 3.5
2015-Jan-18 13:33N 55°02' E 014°41'0 0.0
2015-Jan-18 12:33N 55°02' E 014°41'0 0.1
2015-Jan-18 11:33N 55°02' E 014°41'0 0.0
2015-Jan-18 10:33N 55°02' E 014°41'0 0.0
2015-Jan-18 09:34N 55°02' E 014°41'4 3.9
2015-Jan-18 08:33N 55°06' E 014°41'0 0.0
2015-Jan-18 07:33N 55°06' E 014°41'0 0.0
2015-Jan-18 06:33N 55°06' E 014°41'4 3.9
2015-Jan-18 05:34N 55°02' E 014°41'0 0.0
2015-Jan-18 04:33N 55°02' E 014°41'0 0.0
2015-Jan-18 03:34N 55°02' E 014°41'0 0.1
2015-Jan-18 02:33N 55°02' E 014°41'4 4.0
2015-Jan-18 01:33N 55°06' E 014°41'0 0.0
2015-Jan-18 00:33N 55°06' E 014°41'2 1.9
2015-Jan-17 23:33N 55°04' E 014°41'  
Track history (hours):
 
Tides and Currents Weather Stations Pressure Air Temp Water Temp Dewpoint Dewpoint Depression Visibility Wind Speed Wind Dir Waves Ship Positions

Ahlsell

Last reported at 2015-Jan-27 22:33 UTC. Time now 2015-Jan-27 23:01 UTC.
Position N 55°04' E 014°41'.

Length 40 m; draft 4 m.

Type: Dredging. MMSI: 219000852.

Date/timePositionNaut miles runAvg speedWind from/ knotsBaromVisibWave heightAir tempDewpointWater temp
2015-Jan-27 22:33N 55°04' E 014°41'0 0.0
2015-Jan-27 21:33N 55°04' E 014°41'0 0.0
2015-Jan-27 20:33N 55°04' E 014°41'2 1.9
2015-Jan-27 19:33N 55°06' E 014°41'0 0.0
2015-Jan-27 18:34N 55°06' E 014°41'2 1.9
2015-Jan-27 17:33N 55°04' E 014°41'0 0.0
2015-Jan-27 16:33N 55°04' E 014°41'0 0.0
2015-Jan-27 15:33N 55°04' E 014°41'2 1.9
2015-Jan-27 14:33N 55°06' E 014°41'0 0.0
2015-Jan-27 13:33N 55°06' E 014°41'2 1.9
2015-Jan-27 12:34N 55°04' E 014°41'0 0.1
2015-Jan-27 11:33N 55°04' E 014°41'0 0.0
2015-Jan-27 10:33N 55°04' E 014°41'2 2.0
2015-Jan-27 09:33N 55°06' E 014°41'0 0.0
2015-Jan-27 08:33N 55°06' E 014°41'2 1.9
2015-Jan-27 07:33N 55°04' E 014°41'0 0.0
2015-Jan-27 06:33N 55°04' E 014°41'2 1.6
2015-Jan-27 05:33N 55°06' E 014°41'0 0.4
2015-Jan-27 04:33N 55°06' E 014°41'0 0.0
2015-Jan-27 03:33N 55°06' E 014°41'0 0.0
2015-Jan-27 02:33N 55°06' E 014°41'0 0.0
2015-Jan-27 01:33N 55°06' E 014°41'0 0.0
2015-Jan-27 00:33N 55°06' E 014°41'0 0.0
2015-Jan-26 23:33N 55°06' E 014°41'0 0.0
2015-Jan-26 22:33N 55°06' E 014°41'0 0.0
2015-Jan-26 21:33N 55°06' E 014°41'0 0.0
2015-Jan-26 20:33N 55°06' E 014°41'0 0.0
2015-Jan-26 19:33N 55°06' E 014°41'0 0.0
2015-Jan-26 18:33N 55°06' E 014°41'0 0.0
2015-Jan-26 17:33N 55°06' E 014°41'0 0.0
2015-Jan-26 16:33N 55°06' E 014°41'0 0.0
2015-Jan-26 15:33N 55°06' E 014°41'0 0.0
2015-Jan-26 14:33N 55°06' E 014°41'0 0.0
2015-Jan-26 13:33N 55°06' E 014°41'1 0.9
2015-Jan-26 12:33N 55°05' E 014°40'3 3.3
2015-Jan-26 11:33N 55°02' E 014°39'0 0.0
2015-Jan-26 10:33N 55°02' E 014°39'0 0.0
2015-Jan-26 09:33N 55°02' E 014°39'4 4.0
2015-Jan-26 08:34N 55°06' E 014°41'0 0.2
2015-Jan-26 07:33N 55°06' E 014°41'3 3.1
2015-Jan-26 06:33N 55°03' E 014°41'0 0.1
2015-Jan-26 05:33N 55°03' E 014°41'0 0.0
2015-Jan-26 04:33N 55°03' E 014°41'0 0.0
2015-Jan-26 03:33N 55°03' E 014°41'3 3.2
2015-Jan-26 02:33N 55°06' E 014°41'0 0.0
2015-Jan-26 01:33N 55°06' E 014°41'4 3.7
2015-Jan-26 00:33N 55°02' E 014°41'0 0.2
2015-Jan-25 23:33N 55°02' E 014°41'0 0.0
2015-Jan-25 22:33N 55°02' E 014°41'0 0.0
2015-Jan-25 21:33N 55°02' E 014°41'3 3.1
2015-Jan-25 20:33N 55°05' E 014°41'1 0.8
2015-Jan-25 19:33N 55°06' E 014°41'3 2.8
2015-Jan-25 18:33N 55°03' E 014°41'1 1.4
2015-Jan-25 17:33N 55°02' E 014°41'0 0.0
2015-Jan-25 16:33N 55°02' E 014°41'0 0.0
2015-Jan-25 15:34N 55°02' E 014°41'0 0.0
2015-Jan-25 14:34N 55°02' E 014°41'4 3.8
2015-Jan-25 13:33N 55°06' E 014°41'0 0.4
2015-Jan-25 12:33N 55°06' E 014°41'2 2.5
2015-Jan-25 11:33N 55°04' E 014°40'1 1.5
2015-Jan-25 10:33N 55°02' E 014°41'0 0.0
2015-Jan-25 09:33N 55°02' E 014°41'0 0.0
2015-Jan-25 08:33N 55°02' E 014°41'2 1.8
2015-Jan-25 07:33N 55°04' E 014°41'2 2.1
2015-Jan-25 06:33N 55°06' E 014°41'1 1.1
2015-Jan-25 05:33N 55°05' E 014°40'3 3.0
2015-Jan-25 04:33N 55°02' E 014°41'0 0.0
2015-Jan-25 03:33N 55°02' E 014°41'0 0.0
2015-Jan-25 02:33N 55°02' E 014°41'0 0.0
2015-Jan-25 01:34N 55°02' E 014°41'4 3.6
2015-Jan-25 00:33N 55°06' E 014°41'0 0.3
2015-Jan-24 23:33N 55°06' E 014°41'0 0.0
2015-Jan-24 22:33N 55°06' E 014°41'2 1.8
2015-Jan-24 21:33N 55°04' E 014°41'6 6.4
2015-Jan-24 20:33N 54°59' E 014°48'2 2.5
2015-Jan-24 19:33N 54°57' E 014°50'3 3.4
2015-Jan-24 18:33N 54°59' E 014°46'6 5.6
2015-Jan-24 17:33N 55°04' E 014°41'2 1.9
2015-Jan-24 16:33N 55°06' E 014°41'0 0.0
2015-Jan-24 15:33N 55°06' E 014°41'0 0.0
2015-Jan-24 14:33N 55°06' E 014°41'0 0.0
2015-Jan-24 13:33N 55°06' E 014°41'0 0.0
2015-Jan-24 12:33N 55°06' E 014°41'0 0.0
2015-Jan-24 11:33N 55°06' E 014°41'0 0.0
2015-Jan-24 10:33N 55°06' E 014°41'0 0.0
2015-Jan-24 09:33N 55°06' E 014°41'0 0.0
2015-Jan-24 08:33N 55°06' E 014°41'4 4.3
2015-Jan-24 07:33N 55°02' E 014°39'0 0.0
2015-Jan-24 06:34N 55°02' E 014°39'0 0.0
2015-Jan-24 05:33N 55°02' E 014°39'0 0.0
2015-Jan-24 04:33N 55°02' E 014°39'0 0.0
2015-Jan-24 03:34N 55°02' E 014°39'2 2.2
2015-Jan-24 02:33N 55°04' E 014°40'2 2.0
2015-Jan-24 01:33N 55°06' E 014°41'1 0.9
2015-Jan-24 00:33N 55°05' E 014°40'3 3.2
2015-Jan-23 23:33N 55°02' E 014°41'0 0.0
2015-Jan-23 22:33N 55°02' E 014°41'0 0.0
2015-Jan-23 21:33N 55°02' E 014°41'1 0.5
2015-Jan-23 20:33N 55°03' E 014°41'3 3.4
2015-Jan-23 19:33N 55°06' E 014°41'0 0.0
2015-Jan-23 18:33N 55°06' E 014°41'4 3.7
2015-Jan-23 17:33N 55°02' E 014°39'1 0.6
2015-Jan-23 16:33N 55°02' E 014°39'0 0.0
2015-Jan-23 15:33N 55°02' E 014°39'0 0.0
2015-Jan-23 14:33N 55°02' E 014°39'1 1.1
2015-Jan-23 13:33N 55°03' E 014°40'3 3.1
2015-Jan-23 12:33N 55°06' E 014°41'0 0.0
2015-Jan-23 11:33N 55°06' E 014°41'0 0.0
2015-Jan-23 10:33N 55°06' E 014°41'0 0.0
2015-Jan-23 09:33N 55°06' E 014°41'0 0.0
2015-Jan-23 08:33N 55°06' E 014°41'4 4.1
2015-Jan-23 07:33N 55°02' E 014°39'0 0.0
2015-Jan-23 06:33N 55°02' E 014°39'0 0.0
2015-Jan-23 05:34N 55°02' E 014°39'3 3.2
2015-Jan-23 04:33N 55°05' E 014°41'1 0.9
2015-Jan-23 03:33N 55°06' E 014°41'1 1.0
2015-Jan-23 02:33N 55°05' E 014°40'3 3.0
2015-Jan-23 01:33N 55°02' E 014°41'0 0.0
2015-Jan-23 00:33N 55°02' E 014°41'0 0.0
2015-Jan-22 23:34N 55°02' E 014°41'0 0.0
2015-Jan-22 22:33N 55°02' E 014°41'4 3.9
2015-Jan-22 21:33N 55°06' E 014°41'0 0.0
2015-Jan-22 20:33N 55°06' E 014°41'4 3.9
2015-Jan-22 19:34N 55°02' E 014°41'0 0.0
2015-Jan-22 18:33N 55°02' E 014°41'0 0.0
2015-Jan-22 17:33N 55°02' E 014°41'4 3.7
2015-Jan-22 16:34N 55°06' E 014°41'0 0.2
2015-Jan-22 15:33N 55°06' E 014°41'4 4.2
2015-Jan-22 14:33N 55°02' E 014°39'0 0.1
2015-Jan-22 13:33N 55°02' E 014°39'0 0.1
2015-Jan-22 12:33N 55°02' E 014°39'0 0.1
2015-Jan-22 11:33N 55°02' E 014°39'0 0.1
2015-Jan-22 10:33N 55°02' E 014°39'0 0.1
2015-Jan-22 09:33N 55°02' E 014°39'2 1.6
2015-Jan-22 08:33N 55°03' E 014°40'3 2.8
2015-Jan-22 07:33N 55°06' E 014°41'0 0.0
2015-Jan-22 06:33N 55°06' E 014°41'3 2.9
2015-Jan-22 05:33N 55°03' E 014°39'1 1.2
2015-Jan-22 04:33N 55°02' E 014°39'0 0.4
2015-Jan-22 03:33N 55°02' E 014°39'4 3.6
2015-Jan-22 02:33N 55°06' E 014°41'0 0.0
2015-Jan-22 01:34N 55°06' E 014°41'4 4.1
2015-Jan-22 00:33N 55°02' E 014°39'0 0.0
2015-Jan-21 23:34N 55°02' E 014°39'3 4.5
2015-Jan-21 22:50N 55°05' E 014°41'0 7.0
2015-Jan-21 22:46N 55°06' E 014°41'0 1.8
2015-Jan-21 22:33N 55°06' E 014°41'0 0.0
2015-Jan-21 21:33N 55°06' E 014°41'4 3.8
2015-Jan-21 20:33N 55°02' E 014°39'0 0.3
2015-Jan-21 19:33N 55°02' E 014°39'2 1.6
2015-Jan-21 18:33N 55°04' E 014°40'2 2.5
2015-Jan-21 17:33N 55°06' E 014°41'1 0.8
2015-Jan-21 16:33N 55°05' E 014°40'3 3.4
2015-Jan-21 15:33N 55°02' E 014°39'0 0.5
2015-Jan-21 14:33N 55°02' E 014°40'4 3.6
2015-Jan-21 13:33N 55°06' E 014°41'0 0.0
2015-Jan-21 12:34N 55°06' E 014°41'4 4.2
2015-Jan-21 11:33N 55°02' E 014°39'0 0.0
2015-Jan-21 10:33N 55°02' E 014°39'0 0.0
2015-Jan-21 09:33N 55°02' E 014°39'0 0.1
2015-Jan-21 08:34N 55°02' E 014°39'4 4.2
2015-Jan-21 07:33N 55°06' E 014°41'0 0.0
2015-Jan-21 06:33N 55°06' E 014°41'3 3.4
2015-Jan-21 05:33N 55°03' E 014°40'1 0.7
2015-Jan-21 04:33N 55°02' E 014°39'4 4.1
2015-Jan-21 03:33N 55°06' E 014°41'0 0.0
2015-Jan-21 02:33N 55°06' E 014°41'3 2.9
2015-Jan-21 01:33N 55°03' E 014°40'1 1.0
2015-Jan-21 00:33N 55°02' E 014°41'0 0.0
2015-Jan-20 23:33N 55°02' E 014°41'0 0.3
2015-Jan-20 22:33N 55°02' E 014°41'4 3.6
2015-Jan-20 21:33N 55°06' E 014°41'0 0.0
2015-Jan-20 20:33N 55°06' E 014°41'4 3.9
2015-Jan-20 19:33N 55°02' E 014°41'0 0.0
2015-Jan-20 18:33N 55°02' E 014°41'0 0.0
2015-Jan-20 17:33N 55°02' E 014°41'0 0.0
2015-Jan-20 16:33N 55°02' E 014°41'0 0.0
2015-Jan-20 15:33N 55°02' E 014°41'4 3.9
2015-Jan-20 14:33N 55°06' E 014°41'0 0.0
2015-Jan-20 13:33N 55°06' E 014°41'4 3.8
2015-Jan-20 12:33N 55°02' E 014°40'0 0.2
2015-Jan-20 11:33N 55°02' E 014°41'0 0.0
2015-Jan-20 10:33N 55°02' E 014°41'0 0.0
2015-Jan-20 09:33N 55°02' E 014°41'4 3.9
2015-Jan-20 08:33N 55°06' E 014°41'0 0.0
2015-Jan-20 07:33N 55°06' E 014°41'0 0.0
2015-Jan-20 06:33N 55°06' E 014°41'4 3.9
2015-Jan-20 05:33N 55°02' E 014°41'0 0.0
2015-Jan-20 04:34N 55°02' E 014°41'0 0.0
2015-Jan-20 03:33N 55°02' E 014°41'1 1.2
2015-Jan-20 02:33N 55°03' E 014°41'3 2.7
2015-Jan-20 01:33N 55°06' E 014°41'0 0.0
2015-Jan-20 00:34N 55°06' E 014°41'4 3.8
2015-Jan-19 23:34N 55°02' E 014°41'0 0.1
2015-Jan-19 22:33N 55°02' E 014°41'0 0.0
2015-Jan-19 21:33N 55°02' E 014°41'0 0.0
2015-Jan-19 20:33N 55°02' E 014°41'4 3.7
2015-Jan-19 19:33N 55°06' E 014°41'0 0.3
2015-Jan-19 18:33N 55°06' E 014°41'1 1.2
2015-Jan-19 17:33N 55°05' E 014°41'3 2.8
2015-Jan-19 16:33N 55°02' E 014°41'0 0.0
2015-Jan-19 15:33N 55°02' E 014°41'0 0.0
2015-Jan-19 14:33N 55°02' E 014°41'1 1.1
2015-Jan-19 13:33N 55°03' E 014°41'3 2.8
2015-Jan-19 12:33N 55°06' E 014°41'0 0.0
2015-Jan-19 11:33N 55°06' E 014°41'3 3.2
2015-Jan-19 10:33N 55°03' E 014°41'1 0.6
2015-Jan-19 09:33N 55°02' E 014°41'0 0.0
2015-Jan-19 08:33N 55°02' E 014°41'0 0.0
2015-Jan-19 07:33N 55°02' E 014°41'0 0.0
2015-Jan-19 06:34N 55°02' E 014°41'4 3.8
2015-Jan-19 05:33N 55°06' E 014°41'0 0.1
2015-Jan-19 04:33N 55°06' E 014°41'0 0.0
2015-Jan-19 03:33N 55°06' E 014°41'0 0.0
2015-Jan-19 02:33N 55°06' E 014°41'4 3.9
2015-Jan-19 01:33N 55°02' E 014°41'0 0.0
2015-Jan-19 00:33N 55°02' E 014°41'0 0.0
2015-Jan-18 23:33N 55°02' E 014°41'4 3.9
2015-Jan-18 22:33N 55°06' E 014°41'0 0.0
2015-Jan-18 21:33N 55°06' E 014°41'3 3.2
2015-Jan-18 20:33N 55°03' E 014°41'1 0.7
2015-Jan-18 19:33N 55°02' E 014°41'0 0.0
2015-Jan-18 18:33N 55°02' E 014°41'0 0.1
2015-Jan-18 17:33N 55°02' E 014°41'3 3.0
2015-Jan-18 16:33N 55°05' E 014°41'1 0.9
2015-Jan-18 15:33N 55°06' E 014°41'0 0.4
2015-Jan-18 14:33N 55°06' E 014°41'4 3.5
2015-Jan-18 13:33N 55°02' E 014°41'0 0.0
2015-Jan-18 12:33N 55°02' E 014°41'0 0.1
2015-Jan-18 11:33N 55°02' E 014°41'0 0.0
2015-Jan-18 10:33N 55°02' E 014°41'0 0.0
2015-Jan-18 09:34N 55°02' E 014°41'4 3.9
2015-Jan-18 08:33N 55°06' E 014°41'0 0.0
2015-Jan-18 07:33N 55°06' E 014°41'0 0.0
2015-Jan-18 06:33N 55°06' E 014°41'4 3.9
2015-Jan-18 05:34N 55°02' E 014°41'0 0.0
2015-Jan-18 04:33N 55°02' E 014°41'0 0.0
2015-Jan-18 03:34N 55°02' E 014°41'0 0.1
2015-Jan-18 02:33N 55°02' E 014°41'4 4.0
2015-Jan-18 01:33N 55°06' E 014°41'0 0.0
2015-Jan-18 00:33N 55°06' E 014°41'2 1.9
2015-Jan-17 23:33N 55°04' E 014°41'  

Dump ship's entire track history